sensor_id;sensor_type;location;lat;lon;timestamp;temperature;humidity
33943;DHT22;66763;47.856;17.462;2023-02-18T00:01:49;12.70;44.60
33943;DHT22;66763;47.856;17.462;2023-02-18T00:04:14;12.70;44.60
33943;DHT22;66763;47.856;17.462;2023-02-18T00:06:40;12.60;44.60
33943;DHT22;66763;47.856;17.462;2023-02-18T00:09:05;12.50;44.60
33943;DHT22;66763;47.856;17.462;2023-02-18T00:11:33;12.50;44.80
33943;DHT22;66763;47.856;17.462;2023-02-18T00:14:00;12.50;44.80
33943;DHT22;66763;47.856;17.462;2023-02-18T00:16:26;12.40;44.80
33943;DHT22;66763;47.856;17.462;2023-02-18T00:18:59;12.40;44.90
33943;DHT22;66763;47.856;17.462;2023-02-18T00:21:25;12.40;45.00
33943;DHT22;66763;47.856;17.462;2023-02-18T00:23:51;12.30;45.10
33943;DHT22;66763;47.856;17.462;2023-02-18T00:26:17;12.20;45.10
33943;DHT22;66763;47.856;17.462;2023-02-18T00:28:43;12.20;45.20
33943;DHT22;66763;47.856;17.462;2023-02-18T00:31:10;12.20;45.30
33943;DHT22;66763;47.856;17.462;2023-02-18T00:33:36;12.20;45.30
33943;DHT22;66763;47.856;17.462;2023-02-18T00:36:02;12.10;45.30
33943;DHT22;66763;47.856;17.462;2023-02-18T00:38:28;12.10;45.40
33943;DHT22;66763;47.856;17.462;2023-02-18T00:40:54;12.10;45.40
33943;DHT22;66763;47.856;17.462;2023-02-18T00:43:19;12.10;45.50
33943;DHT22;66763;47.856;17.462;2023-02-18T00:45:45;12.00;45.50
33943;DHT22;66763;47.856;17.462;2023-02-18T00:48:10;12.00;45.60
33943;DHT22;66763;47.856;17.462;2023-02-18T00:50:36;12.00;45.70
33943;DHT22;66763;47.856;17.462;2023-02-18T00:53:01;12.00;45.70
33943;DHT22;66763;47.856;17.462;2023-02-18T00:55:27;11.90;45.60
33943;DHT22;66763;47.856;17.462;2023-02-18T00:57:52;11.90;45.70
33943;DHT22;66763;47.856;17.462;2023-02-18T01:00:18;11.90;45.70
33943;DHT22;66763;47.856;17.462;2023-02-18T01:02:43;11.90;45.80
33943;DHT22;66763;47.856;17.462;2023-02-18T01:05:09;11.90;45.80
33943;DHT22;66763;47.856;17.462;2023-02-18T01:07:34;12.00;45.90
33943;DHT22;66763;47.856;17.462;2023-02-18T01:10:00;11.90;45.70
33943;DHT22;66763;47.856;17.462;2023-02-18T01:12:25;11.90;45.80
33943;DHT22;66763;47.856;17.462;2023-02-18T01:14:51;12.00;45.80
33943;DHT22;66763;47.856;17.462;2023-02-18T01:17:16;11.90;45.80
33943;DHT22;66763;47.856;17.462;2023-02-18T01:19:42;11.90;45.70
33943;DHT22;66763;47.856;17.462;2023-02-18T01:22:07;11.90;45.80
33943;DHT22;66763;47.856;17.462;2023-02-18T01:24:33;11.90;45.90
33943;DHT22;66763;47.856;17.462;2023-02-18T01:26:58;11.90;46.00
33943;DHT22;66763;47.856;17.462;2023-02-18T01:29:24;11.90;45.90
33943;DHT22;66763;47.856;17.462;2023-02-18T01:31:49;11.90;46.00
33943;DHT22;66763;47.856;17.462;2023-02-18T01:34:15;11.90;45.90
33943;DHT22;66763;47.856;17.462;2023-02-18T01:36:40;11.90;46.00
33943;DHT22;66763;47.856;17.462;2023-02-18T01:39:06;11.90;46.10
33943;DHT22;66763;47.856;17.462;2023-02-18T01:41:31;11.90;46.10
33943;DHT22;66763;47.856;17.462;2023-02-18T01:46:41;11.90;46.10
33943;DHT22;66763;47.856;17.462;2023-02-18T01:49:07;11.90;46.20
33943;DHT22;66763;47.856;17.462;2023-02-18T01:51:34;11.90;46.20
33943;DHT22;66763;47.856;17.462;2023-02-18T01:54:05;11.90;46.20
33943;DHT22;66763;47.856;17.462;2023-02-18T01:56:34;11.90;46.10
33943;DHT22;66763;47.856;17.462;2023-02-18T01:59:01;11.90;46.10
33943;DHT22;66763;47.856;17.462;2023-02-18T02:01:27;11.90;46.10
33943;DHT22;66763;47.856;17.462;2023-02-18T02:03:53;11.90;46.20
33943;DHT22;66763;47.856;17.462;2023-02-18T02:06:20;11.80;46.10
33943;DHT22;66763;47.856;17.462;2023-02-18T02:08:46;11.80;46.10
33943;DHT22;66763;47.856;17.462;2023-02-18T02:11:24;11.80;46.10
33943;DHT22;66763;47.856;17.462;2023-02-18T02:29:30;11.80;46.10
33943;DHT22;66763;47.856;17.462;2023-02-18T02:34:18;11.80;46.10
33943;DHT22;66763;47.856;17.462;2023-02-18T02:36:47;11.80;46.20
33943;DHT22;66763;47.856;17.462;2023-02-18T02:40:20;11.80;46.10
33943;DHT22;66763;47.856;17.462;2023-02-18T02:44:37;11.80;46.20
33943;DHT22;66763;47.856;17.462;2023-02-18T02:47:07;11.80;46.20
33943;DHT22;66763;47.856;17.462;2023-02-18T02:52:04;11.70;46.20
33943;DHT22;66763;47.856;17.462;2023-02-18T02:54:31;11.70;46.20
33943;DHT22;66763;47.856;17.462;2023-02-18T02:59:51;11.70;46.20
33943;DHT22;66763;47.856;17.462;2023-02-18T03:15:27;11.70;46.30
33943;DHT22;66763;47.856;17.462;2023-02-18T03:18:00;11.70;46.30
33943;DHT22;66763;47.856;17.462;2023-02-18T03:20:27;11.70;46.20
33943;DHT22;66763;47.856;17.462;2023-02-18T03:22:55;11.60;46.30
33943;DHT22;66763;47.856;17.462;2023-02-18T03:25:22;11.70;46.40
33943;DHT22;66763;47.856;17.462;2023-02-18T03:27:49;11.70;46.30
33943;DHT22;66763;47.856;17.462;2023-02-18T03:30:29;11.70;46.40
33943;DHT22;66763;47.856;17.462;2023-02-18T03:32:57;11.70;46.30
33943;DHT22;66763;47.856;17.462;2023-02-18T03:35:24;11.70;46.50
33943;DHT22;66763;47.856;17.462;2023-02-18T03:37:55;11.60;46.40
33943;DHT22;66763;47.856;17.462;2023-02-18T03:40:26;11.70;46.40
33943;DHT22;66763;47.856;17.462;2023-02-18T03:42:51;11.60;46.40
33943;DHT22;66763;47.856;17.462;2023-02-18T03:45:17;11.60;46.50
33943;DHT22;66763;47.856;17.462;2023-02-18T03:47:42;11.60;46.40
33943;DHT22;66763;47.856;17.462;2023-02-18T03:50:08;11.60;46.30
33943;DHT22;66763;47.856;17.462;2023-02-18T03:52:33;11.60;46.40
33943;DHT22;66763;47.856;17.462;2023-02-18T03:55:02;11.60;46.40
33943;DHT22;66763;47.856;17.462;2023-02-18T03:57:27;11.60;46.50
33943;DHT22;66763;47.856;17.462;2023-02-18T03:59:53;11.60;46.40
33943;DHT22;66763;47.856;17.462;2023-02-18T04:02:18;11.60;46.30
33943;DHT22;66763;47.856;17.462;2023-02-18T04:04:44;11.60;46.30
33943;DHT22;66763;47.856;17.462;2023-02-18T04:07:09;11.60;46.40
33943;DHT22;66763;47.856;17.462;2023-02-18T04:09:35;11.60;46.40
33943;DHT22;66763;47.856;17.462;2023-02-18T04:12:00;11.60;46.40
33943;DHT22;66763;47.856;17.462;2023-02-18T04:14:26;11.60;46.50
33943;DHT22;66763;47.856;17.462;2023-02-18T04:16:51;11.60;46.40
33943;DHT22;66763;47.856;17.462;2023-02-18T04:19:17;11.60;46.50
33943;DHT22;66763;47.856;17.462;2023-02-18T04:21:43;11.60;46.40
33943;DHT22;66763;47.856;17.462;2023-02-18T04:24:08;11.60;46.40
33943;DHT22;66763;47.856;17.462;2023-02-18T04:26:33;11.60;46.50
33943;DHT22;66763;47.856;17.462;2023-02-18T04:28:59;11.50;46.40
33943;DHT22;66763;47.856;17.462;2023-02-18T04:31:25;11.50;46.40
33943;DHT22;66763;47.856;17.462;2023-02-18T04:33:50;11.50;46.50
33943;DHT22;66763;47.856;17.462;2023-02-18T04:36:15;11.60;46.60
33943;DHT22;66763;47.856;17.462;2023-02-18T04:38:41;11.50;46.50
33943;DHT22;66763;47.856;17.462;2023-02-18T04:41:07;11.50;46.40
33943;DHT22;66763;47.856;17.462;2023-02-18T04:43:33;11.50;46.50
33943;DHT22;66763;47.856;17.462;2023-02-18T04:45:58;11.50;46.40
33943;DHT22;66763;47.856;17.462;2023-02-18T04:48:24;11.50;46.50
33943;DHT22;66763;47.856;17.462;2023-02-18T04:50:49;11.50;46.50
33943;DHT22;66763;47.856;17.462;2023-02-18T04:53:15;11.60;46.50
33943;DHT22;66763;47.856;17.462;2023-02-18T04:55:40;11.50;46.50
33943;DHT22;66763;47.856;17.462;2023-02-18T04:58:06;11.50;46.50
33943;DHT22;66763;47.856;17.462;2023-02-18T05:00:31;11.60;46.50
33943;DHT22;66763;47.856;17.462;2023-02-18T05:02:57;11.50;46.60
33943;DHT22;66763;47.856;17.462;2023-02-18T05:05:22;11.50;46.50
33943;DHT22;66763;47.856;17.462;2023-02-18T05:07:48;11.50;46.50
33943;DHT22;66763;47.856;17.462;2023-02-18T05:10:14;11.50;46.60
33943;DHT22;66763;47.856;17.462;2023-02-18T05:12:40;11.50;46.50
33943;DHT22;66763;47.856;17.462;2023-02-18T05:15:06;11.50;46.50
33943;DHT22;66763;47.856;17.462;2023-02-18T05:17:31;11.50;46.50
33943;DHT22;66763;47.856;17.462;2023-02-18T05:19:57;11.50;46.50
33943;DHT22;66763;47.856;17.462;2023-02-18T05:22:22;11.50;46.50
33943;DHT22;66763;47.856;17.462;2023-02-18T05:24:48;11.50;46.60
33943;DHT22;66763;47.856;17.462;2023-02-18T05:27:13;11.50;46.50
33943;DHT22;66763;47.856;17.462;2023-02-18T05:29:39;11.50;46.60
33943;DHT22;66763;47.856;17.462;2023-02-18T05:32:04;11.50;46.60
33943;DHT22;66763;47.856;17.462;2023-02-18T05:34:30;11.50;46.60
33943;DHT22;66763;47.856;17.462;2023-02-18T05:36:55;11.50;46.70
33943;DHT22;66763;47.856;17.462;2023-02-18T05:39:21;11.50;46.70
33943;DHT22;66763;47.856;17.462;2023-02-18T05:41:46;11.50;46.60
33943;DHT22;66763;47.856;17.462;2023-02-18T05:44:12;11.50;46.70
33943;DHT22;66763;47.856;17.462;2023-02-18T05:47:06;11.50;46.60
33943;DHT22;66763;47.856;17.462;2023-02-18T05:49:32;11.50;46.80
33943;DHT22;66763;47.856;17.462;2023-02-18T05:51:58;11.50;46.70
33943;DHT22;66763;47.856;17.462;2023-02-18T05:54:23;11.50;46.80
33943;DHT22;66763;47.856;17.462;2023-02-18T05:56:49;11.50;46.80
33943;DHT22;66763;47.856;17.462;2023-02-18T05:59:15;11.40;46.80
33943;DHT22;66763;47.856;17.462;2023-02-18T06:01:41;11.50;46.80
33943;DHT22;66763;47.856;17.462;2023-02-18T06:04:06;11.50;46.70
33943;DHT22;66763;47.856;17.462;2023-02-18T06:06:32;11.40;46.70
33943;DHT22;66763;47.856;17.462;2023-02-18T06:08:57;11.50;46.80
33943;DHT22;66763;47.856;17.462;2023-02-18T06:11:23;11.40;46.70
33943;DHT22;66763;47.856;17.462;2023-02-18T06:13:48;11.50;46.70
33943;DHT22;66763;47.856;17.462;2023-02-18T06:16:14;11.40;46.80
33943;DHT22;66763;47.856;17.462;2023-02-18T06:18:39;11.40;46.80
33943;DHT22;66763;47.856;17.462;2023-02-18T06:21:05;11.40;46.70
33943;DHT22;66763;47.856;17.462;2023-02-18T06:23:30;11.40;46.70
33943;DHT22;66763;47.856;17.462;2023-02-18T06:25:56;11.40;46.70
33943;DHT22;66763;47.856;17.462;2023-02-18T06:28:21;11.40;46.70
33943;DHT22;66763;47.856;17.462;2023-02-18T06:30:48;11.40;46.80
33943;DHT22;66763;47.856;17.462;2023-02-18T06:33:13;11.40;46.50
33943;DHT22;66763;47.856;17.462;2023-02-18T06:35:39;11.40;46.60
33943;DHT22;66763;47.856;17.462;2023-02-18T06:38:04;11.40;46.40
33943;DHT22;66763;47.856;17.462;2023-02-18T06:40:30;11.40;46.30
33943;DHT22;66763;47.856;17.462;2023-02-18T06:42:56;11.40;46.30
33943;DHT22;66763;47.856;17.462;2023-02-18T06:45:21;11.40;46.30
33943;DHT22;66763;47.856;17.462;2023-02-18T06:47:47;11.40;46.20
33943;DHT22;66763;47.856;17.462;2023-02-18T06:50:12;11.40;46.30
33943;DHT22;66763;47.856;17.462;2023-02-18T06:52:38;11.40;46.30
33943;DHT22;66763;47.856;17.462;2023-02-18T06:55:04;11.40;46.20
33943;DHT22;66763;47.856;17.462;2023-02-18T06:57:29;11.40;46.30
33943;DHT22;66763;47.856;17.462;2023-02-18T06:59:55;11.40;46.20
33943;DHT22;66763;47.856;17.462;2023-02-18T07:02:20;11.40;46.20
33943;DHT22;66763;47.856;17.462;2023-02-18T07:04:46;11.40;46.30
33943;DHT22;66763;47.856;17.462;2023-02-18T07:07:11;11.40;46.20
33943;DHT22;66763;47.856;17.462;2023-02-18T07:09:37;11.40;46.30
33943;DHT22;66763;47.856;17.462;2023-02-18T07:12:02;11.40;46.20
33943;DHT22;66763;47.856;17.462;2023-02-18T07:14:28;11.40;46.30
33943;DHT22;66763;47.856;17.462;2023-02-18T07:16:53;11.40;46.30
33943;DHT22;66763;47.856;17.462;2023-02-18T07:19:19;11.40;46.20
33943;DHT22;66763;47.856;17.462;2023-02-18T07:21:44;11.40;46.30
33943;DHT22;66763;47.856;17.462;2023-02-18T07:24:10;11.40;46.30
33943;DHT22;66763;47.856;17.462;2023-02-18T07:26:35;11.40;46.30
33943;DHT22;66763;47.856;17.462;2023-02-18T07:29:01;11.30;46.30
33943;DHT22;66763;47.856;17.462;2023-02-18T07:31:26;11.40;46.30
33943;DHT22;66763;47.856;17.462;2023-02-18T07:33:52;11.40;46.30
33943;DHT22;66763;47.856;17.462;2023-02-18T07:36:17;11.40;46.30
33943;DHT22;66763;47.856;17.462;2023-02-18T07:38:43;11.40;46.40
33943;DHT22;66763;47.856;17.462;2023-02-18T07:41:26;11.40;46.50
33943;DHT22;66763;47.856;17.462;2023-02-18T07:43:52;11.30;46.40
33943;DHT22;66763;47.856;17.462;2023-02-18T07:46:17;11.40;46.50
33943;DHT22;66763;47.856;17.462;2023-02-18T07:48:43;11.40;46.50
33943;DHT22;66763;47.856;17.462;2023-02-18T07:51:09;11.40;46.40
33943;DHT22;66763;47.856;17.462;2023-02-18T07:53:36;11.40;46.50
33943;DHT22;66763;47.856;17.462;2023-02-18T07:56:01;11.40;46.50
33943;DHT22;66763;47.856;17.462;2023-02-18T07:58:28;11.40;46.50
33943;DHT22;66763;47.856;17.462;2023-02-18T08:00:54;11.40;46.50
33943;DHT22;66763;47.856;17.462;2023-02-18T08:03:21;11.40;46.60
33943;DHT22;66763;47.856;17.462;2023-02-18T08:05:47;11.40;46.60
33943;DHT22;66763;47.856;17.462;2023-02-18T08:08:13;11.40;46.60
33943;DHT22;66763;47.856;17.462;2023-02-18T08:10:39;11.40;46.70
33943;DHT22;66763;47.856;17.462;2023-02-18T08:13:05;11.40;46.70
33943;DHT22;66763;47.856;17.462;2023-02-18T08:15:31;11.40;46.60
33943;DHT22;66763;47.856;17.462;2023-02-18T08:17:56;11.40;46.70
33943;DHT22;66763;47.856;17.462;2023-02-18T08:20:21;11.40;46.70
33943;DHT22;66763;47.856;17.462;2023-02-18T08:22:47;11.40;46.70
33943;DHT22;66763;47.856;17.462;2023-02-18T08:25:13;11.40;46.70
33943;DHT22;66763;47.856;17.462;2023-02-18T08:27:38;11.40;46.80
33943;DHT22;66763;47.856;17.462;2023-02-18T08:30:04;11.30;46.70
33943;DHT22;66763;47.856;17.462;2023-02-18T08:32:29;11.30;46.90
33943;DHT22;66763;47.856;17.462;2023-02-18T08:34:55;11.30;46.90
33943;DHT22;66763;47.856;17.462;2023-02-18T08:37:20;11.30;46.90
33943;DHT22;66763;47.856;17.462;2023-02-18T08:39:46;11.30;46.90
33943;DHT22;66763;47.856;17.462;2023-02-18T08:42:12;11.30;46.90
33943;DHT22;66763;47.856;17.462;2023-02-18T08:44:37;11.30;46.80
33943;DHT22;66763;47.856;17.462;2023-02-18T08:47:03;11.30;46.80
33943;DHT22;66763;47.856;17.462;2023-02-18T08:49:28;11.40;47.50
33943;DHT22;66763;47.856;17.462;2023-02-18T08:51:54;11.30;46.70
33943;DHT22;66763;47.856;17.462;2023-02-18T08:54:19;11.30;46.80
33943;DHT22;66763;47.856;17.462;2023-02-18T08:56:45;11.30;46.80
33943;DHT22;66763;47.856;17.462;2023-02-18T08:59:10;11.30;46.80
33943;DHT22;66763;47.856;17.462;2023-02-18T09:01:36;11.30;46.90
33943;DHT22;66763;47.856;17.462;2023-02-18T09:04:01;11.30;46.80
33943;DHT22;66763;47.856;17.462;2023-02-18T09:06:27;11.30;46.90
33943;DHT22;66763;47.856;17.462;2023-02-18T09:08:53;11.40;47.10
33943;DHT22;66763;47.856;17.462;2023-02-18T09:11:18;11.30;46.80
33943;DHT22;66763;47.856;17.462;2023-02-18T09:13:44;11.30;47.00
33943;DHT22;66763;47.856;17.462;2023-02-18T09:16:11;11.40;47.10
33943;DHT22;66763;47.856;17.462;2023-02-18T09:18:37;11.30;46.90
33943;DHT22;66763;47.856;17.462;2023-02-18T09:21:03;11.40;47.00
33943;DHT22;66763;47.856;17.462;2023-02-18T09:23:29;11.30;47.00
33943;DHT22;66763;47.856;17.462;2023-02-18T09:25:55;11.30;47.00
33943;DHT22;66763;47.856;17.462;2023-02-18T09:28:22;11.30;46.90
33943;DHT22;66763;47.856;17.462;2023-02-18T09:30:48;11.30;47.10
33943;DHT22;66763;47.856;17.462;2023-02-18T09:33:13;11.30;47.00
33943;DHT22;66763;47.856;17.462;2023-02-18T09:35:43;11.30;47.00
33943;DHT22;66763;47.856;17.462;2023-02-18T09:38:09;11.40;46.90
33943;DHT22;66763;47.856;17.462;2023-02-18T09:40:36;11.30;46.90
33943;DHT22;66763;47.856;17.462;2023-02-18T09:43:02;11.30;47.00
33943;DHT22;66763;47.856;17.462;2023-02-18T09:45:29;11.30;47.00
33943;DHT22;66763;47.856;17.462;2023-02-18T09:47:54;11.30;47.00
33943;DHT22;66763;47.856;17.462;2023-02-18T09:52:49;11.30;47.10
33943;DHT22;66763;47.856;17.462;2023-02-18T09:57:41;11.30;47.00
33943;DHT22;66763;47.856;17.462;2023-02-18T10:02:40;11.30;47.00
33943;DHT22;66763;47.856;17.462;2023-02-18T10:05:10;11.30;46.90
33943;DHT22;66763;47.856;17.462;2023-02-18T10:07:37;11.30;47.20
33943;DHT22;66763;47.856;17.462;2023-02-18T10:10:15;11.30;47.20
33943;DHT22;66763;47.856;17.462;2023-02-18T10:12:40;11.30;47.00
33943;DHT22;66763;47.856;17.462;2023-02-18T10:15:09;11.30;47.00
33943;DHT22;66763;47.856;17.462;2023-02-18T10:17:41;11.30;47.00
33943;DHT22;66763;47.856;17.462;2023-02-18T10:20:07;11.30;47.00
33943;DHT22;66763;47.856;17.462;2023-02-18T10:22:32;11.40;47.10
33943;DHT22;66763;47.856;17.462;2023-02-18T10:24:58;11.30;47.00
33943;DHT22;66763;47.856;17.462;2023-02-18T10:29:50;11.30;47.00
33943;DHT22;66763;47.856;17.462;2023-02-18T10:34:43;11.30;47.10
33943;DHT22;66763;47.856;17.462;2023-02-18T10:39:47;11.30;47.00
33943;DHT22;66763;47.856;17.462;2023-02-18T10:50:07;11.30;47.50
33943;DHT22;66763;47.856;17.462;2023-02-18T10:52:34;11.30;47.50
33943;DHT22;66763;47.856;17.462;2023-02-18T10:55:08;11.30;47.30
33943;DHT22;66763;47.856;17.462;2023-02-18T10:57:34;11.30;47.20
33943;DHT22;66763;47.856;17.462;2023-02-18T11:00:05;11.30;47.20
33943;DHT22;66763;47.856;17.462;2023-02-18T11:02:39;11.30;47.50
33943;DHT22;66763;47.856;17.462;2023-02-18T11:05:26;11.30;47.30
33943;DHT22;66763;47.856;17.462;2023-02-18T11:07:52;11.30;47.40
33943;DHT22;66763;47.856;17.462;2023-02-18T11:10:21;11.30;47.60
33943;DHT22;66763;47.856;17.462;2023-02-18T11:12:49;11.30;47.50
33943;DHT22;66763;47.856;17.462;2023-02-18T11:15:17;11.30;47.70
33943;DHT22;66763;47.856;17.462;2023-02-18T11:17:47;11.30;47.50
33943;DHT22;66763;47.856;17.462;2023-02-18T11:22:47;11.30;47.30
33943;DHT22;66763;47.856;17.462;2023-02-18T11:25:23;11.30;47.50
33943;DHT22;66763;47.856;17.462;2023-02-18T11:27:50;11.30;47.50
33943;DHT22;66763;47.856;17.462;2023-02-18T11:30:20;11.30;47.60
33943;DHT22;66763;47.856;17.462;2023-02-18T11:32:51;11.30;47.70
33943;DHT22;66763;47.856;17.462;2023-02-18T11:35:18;11.30;47.70
33943;DHT22;66763;47.856;17.462;2023-02-18T11:37:44;11.30;47.60
33943;DHT22;66763;47.856;17.462;2023-02-18T11:40:23;11.30;47.50
33943;DHT22;66763;47.856;17.462;2023-02-18T11:42:50;11.30;47.70
33943;DHT22;66763;47.856;17.462;2023-02-18T11:45:25;11.30;47.60
33943;DHT22;66763;47.856;17.462;2023-02-18T11:47:57;11.30;47.70
33943;DHT22;66763;47.856;17.462;2023-02-18T11:50:24;11.30;47.60
33943;DHT22;66763;47.856;17.462;2023-02-18T11:52:50;11.30;47.60
33943;DHT22;66763;47.856;17.462;2023-02-18T11:55:17;11.30;47.80
33943;DHT22;66763;47.856;17.462;2023-02-18T11:58:02;11.30;47.60
33943;DHT22;66763;47.856;17.462;2023-02-18T12:03:00;11.30;47.70
33943;DHT22;66763;47.856;17.462;2023-02-18T12:05:27;11.30;47.60
33943;DHT22;66763;47.856;17.462;2023-02-18T12:08:00;11.30;47.70
33943;DHT22;66763;47.856;17.462;2023-02-18T12:12:55;11.30;47.70
33943;DHT22;66763;47.856;17.462;2023-02-18T12:15:26;11.30;47.90
33943;DHT22;66763;47.856;17.462;2023-02-18T12:20:59;11.30;47.80
33943;DHT22;66763;47.856;17.462;2023-02-18T12:23:43;11.30;47.80
33943;DHT22;66763;47.856;17.462;2023-02-18T12:31:32;11.30;47.70
33943;DHT22;66763;47.856;17.462;2023-02-18T12:34:16;11.30;47.70
33943;DHT22;66763;47.856;17.462;2023-02-18T12:36:50;11.30;47.70
33943;DHT22;66763;47.856;17.462;2023-02-18T12:39:24;11.30;47.70
33943;DHT22;66763;47.856;17.462;2023-02-18T12:44:35;11.30;47.70
33943;DHT22;66763;47.856;17.462;2023-02-18T12:47:18;11.30;47.70
33943;DHT22;66763;47.856;17.462;2023-02-18T12:52:21;11.30;47.90
33943;DHT22;66763;47.856;17.462;2023-02-18T12:57:26;11.30;48.00
33943;DHT22;66763;47.856;17.462;2023-02-18T13:05:17;11.30;48.00
33943;DHT22;66763;47.856;17.462;2023-02-18T13:10:41;11.30;47.80
33943;DHT22;66763;47.856;17.462;2023-02-18T13:13:10;11.30;47.90
33943;DHT22;66763;47.856;17.462;2023-02-18T13:15:45;11.30;48.00
33943;DHT22;66763;47.856;17.462;2023-02-18T13:18:17;11.30;48.10
33943;DHT22;66763;47.856;17.462;2023-02-18T13:20:51;11.30;48.00
33943;DHT22;66763;47.856;17.462;2023-02-18T13:23:22;11.30;48.00
33943;DHT22;66763;47.856;17.462;2023-02-18T13:25:48;11.30;48.00
33943;DHT22;66763;47.856;17.462;2023-02-18T13:41:12;11.30;47.80
33943;DHT22;66763;47.856;17.462;2023-02-18T13:43:38;11.30;47.80
33943;DHT22;66763;47.856;17.462;2023-02-18T13:48:29;11.30;47.80
33943;DHT22;66763;47.856;17.462;2023-02-18T13:51:02;11.30;47.70
33943;DHT22;66763;47.856;17.462;2023-02-18T13:53:28;11.30;47.70
33943;DHT22;66763;47.856;17.462;2023-02-18T13:55:56;11.30;47.60
33943;DHT22;66763;47.856;17.462;2023-02-18T13:58:31;11.30;47.60
33943;DHT22;66763;47.856;17.462;2023-02-18T14:03:33;11.30;47.60
33943;DHT22;66763;47.856;17.462;2023-02-18T14:06:00;11.30;47.70
33943;DHT22;66763;47.856;17.462;2023-02-18T14:16:05;11.30;47.50
33943;DHT22;66763;47.856;17.462;2023-02-18T14:18:32;11.30;47.60
33943;DHT22;66763;47.856;17.462;2023-02-18T14:21:17;11.30;47.50
33943;DHT22;66763;47.856;17.462;2023-02-18T14:23:53;11.30;47.50
33943;DHT22;66763;47.856;17.462;2023-02-18T14:26:22;11.30;47.40
33943;DHT22;66763;47.856;17.462;2023-02-18T14:33:40;11.30;47.20
33943;DHT22;66763;47.856;17.462;2023-02-18T14:36:24;11.30;47.20
33943;DHT22;66763;47.856;17.462;2023-02-18T14:48:59;11.30;47.40
33943;DHT22;66763;47.856;17.462;2023-02-18T14:51:28;11.30;47.30
33943;DHT22;66763;47.856;17.462;2023-02-18T14:53:54;11.30;47.40
33943;DHT22;66763;47.856;17.462;2023-02-18T14:56:20;11.30;47.30
33943;DHT22;66763;47.856;17.462;2023-02-18T14:58:59;11.30;47.30
33943;DHT22;66763;47.856;17.462;2023-02-18T15:01:27;11.30;47.30
33943;DHT22;66763;47.856;17.462;2023-02-18T15:03:54;11.30;47.30
33943;DHT22;66763;47.856;17.462;2023-02-18T15:08:52;11.30;47.40
33943;DHT22;66763;47.856;17.462;2023-02-18T15:11:20;11.30;47.40
33943;DHT22;66763;47.856;17.462;2023-02-18T15:13:47;11.30;47.40
33943;DHT22;66763;47.856;17.462;2023-02-18T15:16:34;11.30;47.40
33943;DHT22;66763;47.856;17.462;2023-02-18T15:19:02;11.30;47.40
33943;DHT22;66763;47.856;17.462;2023-02-18T15:21:39;11.30;47.40
33943;DHT22;66763;47.856;17.462;2023-02-18T15:24:06;11.30;47.40
33943;DHT22;66763;47.856;17.462;2023-02-18T15:26:33;11.30;47.50
33943;DHT22;66763;47.856;17.462;2023-02-18T15:29:01;11.30;47.50
33943;DHT22;66763;47.856;17.462;2023-02-18T15:31:28;11.30;47.40
33943;DHT22;66763;47.856;17.462;2023-02-18T15:33:53;11.30;48.00
33943;DHT22;66763;47.856;17.462;2023-02-18T15:36:19;11.30;47.50
33943;DHT22;66763;47.856;17.462;2023-02-18T15:38:45;11.30;47.50
33943;DHT22;66763;47.856;17.462;2023-02-18T15:41:10;11.30;48.10
33943;DHT22;66763;47.856;17.462;2023-02-18T15:43:37;11.30;47.50
33943;DHT22;66763;47.856;17.462;2023-02-18T15:46:09;11.30;47.60
33943;DHT22;66763;47.856;17.462;2023-02-18T15:51:03;11.30;47.60
33943;DHT22;66763;47.856;17.462;2023-02-18T15:53:30;11.30;47.50
33943;DHT22;66763;47.856;17.462;2023-02-18T15:56:03;11.30;47.60
33943;DHT22;66763;47.856;17.462;2023-02-18T15:58:31;11.30;47.60
33943;DHT22;66763;47.856;17.462;2023-02-18T16:00:58;11.30;47.50
33943;DHT22;66763;47.856;17.462;2023-02-18T16:03:25;11.30;47.50
33943;DHT22;66763;47.856;17.462;2023-02-18T16:06:07;11.30;47.50
33943;DHT22;66763;47.856;17.462;2023-02-18T16:08:33;11.30;48.10
33943;DHT22;66763;47.856;17.462;2023-02-18T16:10:59;11.30;47.50
33943;DHT22;66763;47.856;17.462;2023-02-18T16:13:27;11.30;47.50
33943;DHT22;66763;47.856;17.462;2023-02-18T16:15:55;11.30;47.50
33943;DHT22;66763;47.856;17.462;2023-02-18T16:18:25;11.30;47.50
33943;DHT22;66763;47.856;17.462;2023-02-18T16:20:57;11.30;47.50
33943;DHT22;66763;47.856;17.462;2023-02-18T16:23:29;11.30;47.50
33943;DHT22;66763;47.856;17.462;2023-02-18T16:25:55;11.30;47.50
33943;DHT22;66763;47.856;17.462;2023-02-18T16:28:23;11.30;47.50
33943;DHT22;66763;47.856;17.462;2023-02-18T16:30:49;11.30;47.50
33943;DHT22;66763;47.856;17.462;2023-02-18T16:33:15;11.30;47.60
33943;DHT22;66763;47.856;17.462;2023-02-18T16:35:40;11.30;47.60
33943;DHT22;66763;47.856;17.462;2023-02-18T16:38:06;11.30;47.60
33943;DHT22;66763;47.856;17.462;2023-02-18T16:40:37;11.30;47.60
33943;DHT22;66763;47.856;17.462;2023-02-18T16:43:13;11.30;47.60
33943;DHT22;66763;47.856;17.462;2023-02-18T16:45:43;11.30;47.60
33943;DHT22;66763;47.856;17.462;2023-02-18T16:50:41;11.30;47.60
33943;DHT22;66763;47.856;17.462;2023-02-18T16:53:08;11.30;47.60
33943;DHT22;66763;47.856;17.462;2023-02-18T16:55:34;11.30;47.60
33943;DHT22;66763;47.856;17.462;2023-02-18T16:58:00;11.20;47.60
33943;DHT22;66763;47.856;17.462;2023-02-18T17:00:25;11.40;47.60
33943;DHT22;66763;47.856;17.462;2023-02-18T17:02:52;11.30;47.60
33943;DHT22;66763;47.856;17.462;2023-02-18T17:05:20;11.30;47.60
33943;DHT22;66763;47.856;17.462;2023-02-18T17:07:46;11.30;47.60
33943;DHT22;66763;47.856;17.462;2023-02-18T17:10:12;11.30;47.70
33943;DHT22;66763;47.856;17.462;2023-02-18T17:12:38;11.30;47.70
33943;DHT22;66763;47.856;17.462;2023-02-18T17:15:14;11.30;47.60
33943;DHT22;66763;47.856;17.462;2023-02-18T17:17:45;11.30;47.70
33943;DHT22;66763;47.856;17.462;2023-02-18T17:20:11;11.30;47.70
33943;DHT22;66763;47.856;17.462;2023-02-18T17:22:39;11.30;47.80
33943;DHT22;66763;47.856;17.462;2023-02-18T17:25:29;11.30;47.80
33943;DHT22;66763;47.856;17.462;2023-02-18T17:27:54;11.30;47.70
33943;DHT22;66763;47.856;17.462;2023-02-18T17:30:20;11.30;47.70
33943;DHT22;66763;47.856;17.462;2023-02-18T17:32:46;11.30;47.80
33943;DHT22;66763;47.856;17.462;2023-02-18T17:35:16;11.30;47.80
33943;DHT22;66763;47.856;17.462;2023-02-18T17:37:42;11.30;47.80
33943;DHT22;66763;47.856;17.462;2023-02-18T17:40:12;11.30;47.80
33943;DHT22;66763;47.856;17.462;2023-02-18T17:42:38;11.20;47.70